sensor_id;sensor_type;location;lat;lon;timestamp;P1;durP1;ratioP1;P2;durP2;ratioP2
12120;SDS011;6124;59.460;17.908;2023-04-29T00:00:30;1.93;;;1.40;;
12120;SDS011;6124;59.460;17.908;2023-04-29T00:02:57;1.77;;;1.40;;
12120;SDS011;6124;59.460;17.908;2023-04-29T00:05:24;3.37;;;1.20;;
12120;SDS011;6124;59.460;17.908;2023-04-29T00:07:52;2.50;;;1.83;;
12120;SDS011;6124;59.460;17.908;2023-04-29T00:10:20;2.23;;;1.67;;
12120;SDS011;6124;59.460;17.908;2023-04-29T00:12:48;2.80;;;1.83;;
12120;SDS011;6124;59.460;17.908;2023-04-29T00:15:15;4.60;;;1.87;;
12120;SDS011;6124;59.460;17.908;2023-04-29T00:17:43;3.10;;;1.77;;
12120;SDS011;6124;59.460;17.908;2023-04-29T00:20:11;2.57;;;1.50;;
12120;SDS011;6124;59.460;17.908;2023-04-29T00:22:38;2.43;;;1.60;;
12120;SDS011;6124;59.460;17.908;2023-04-29T00:25:06;2.50;;;1.60;;
12120;SDS011;6124;59.460;17.908;2023-04-29T00:27:36;3.77;;;1.73;;
12120;SDS011;6124;59.460;17.908;2023-04-29T00:30:04;1.73;;;1.53;;
12120;SDS011;6124;59.460;17.908;2023-04-29T00:32:32;1.53;;;1.27;;
12120;SDS011;6124;59.460;17.908;2023-04-29T00:35:00;1.80;;;1.40;;
12120;SDS011;6124;59.460;17.908;2023-04-29T00:37:27;3.63;;;1.53;;
12120;SDS011;6124;59.460;17.908;2023-04-29T00:39:55;2.30;;;1.70;;
12120;SDS011;6124;59.460;17.908;2023-04-29T00:42:23;2.83;;;1.60;;
12120;SDS011;6124;59.460;17.908;2023-04-29T00:44:52;2.50;;;1.63;;
12120;SDS011;6124;59.460;17.908;2023-04-29T00:47:20;3.23;;;1.80;;
12120;SDS011;6124;59.460;17.908;2023-04-29T00:49:47;2.57;;;1.77;;
12120;SDS011;6124;59.460;17.908;2023-04-29T00:52:14;2.27;;;1.83;;
12120;SDS011;6124;59.460;17.908;2023-04-29T00:54:43;2.20;;;1.80;;
12120;SDS011;6124;59.460;17.908;2023-04-29T00:57:10;2.53;;;1.67;;
12120;SDS011;6124;59.460;17.908;2023-04-29T00:59:38;2.47;;;1.63;;
12120;SDS011;6124;59.460;17.908;2023-04-29T01:02:06;3.00;;;1.80;;
12120;SDS011;6124;59.460;17.908;2023-04-29T01:04:34;2.60;;;1.97;;
12120;SDS011;6124;59.460;17.908;2023-04-29T01:07:03;2.77;;;1.70;;
12120;SDS011;6124;59.460;17.908;2023-04-29T01:09:37;4.30;;;1.80;;
12120;SDS011;6124;59.460;17.908;2023-04-29T01:12:10;3.60;;;1.50;;
12120;SDS011;6124;59.460;17.908;2023-04-29T01:14:40;2.20;;;1.60;;
12120;SDS011;6124;59.460;17.908;2023-04-29T01:17:13;1.93;;;1.53;;
12120;SDS011;6124;59.460;17.908;2023-04-29T01:19:43;2.50;;;1.80;;
12120;SDS011;6124;59.460;17.908;2023-04-29T01:22:11;3.17;;;1.80;;
12120;SDS011;6124;59.460;17.908;2023-04-29T01:24:40;2.40;;;1.73;;
12120;SDS011;6124;59.460;17.908;2023-04-29T01:27:09;2.97;;;1.80;;
12120;SDS011;6124;59.460;17.908;2023-04-29T01:29:43;2.67;;;1.90;;
12120;SDS011;6124;59.460;17.908;2023-04-29T01:32:12;2.23;;;1.70;;
12120;SDS011;6124;59.460;17.908;2023-04-29T01:34:41;3.67;;;1.83;;
12120;SDS011;6124;59.460;17.908;2023-04-29T01:37:13;1.77;;;1.57;;
12120;SDS011;6124;59.460;17.908;2023-04-29T01:39:48;2.57;;;1.70;;
12120;SDS011;6124;59.460;17.908;2023-04-29T01:42:20;2.83;;;1.60;;
12120;SDS011;6124;59.460;17.908;2023-04-29T01:44:50;3.00;;;1.87;;
12120;SDS011;6124;59.460;17.908;2023-04-29T01:47:19;3.47;;;2.00;;
12120;SDS011;6124;59.460;17.908;2023-04-29T01:49:46;2.47;;;1.70;;
12120;SDS011;6124;59.460;17.908;2023-04-29T01:52:15;2.20;;;1.60;;
12120;SDS011;6124;59.460;17.908;2023-04-29T01:54:42;2.00;;;1.67;;
12120;SDS011;6124;59.460;17.908;2023-04-29T01:57:11;2.83;;;1.80;;
12120;SDS011;6124;59.460;17.908;2023-04-29T01:59:38;4.97;;;2.10;;
12120;SDS011;6124;59.460;17.908;2023-04-29T02:02:06;2.33;;;1.70;;
12120;SDS011;6124;59.460;17.908;2023-04-29T02:04:34;1.80;;;1.47;;
12120;SDS011;6124;59.460;17.908;2023-04-29T02:07:01;2.73;;;1.70;;
12120;SDS011;6124;59.460;17.908;2023-04-29T02:09:29;2.27;;;1.50;;
12120;SDS011;6124;59.460;17.908;2023-04-29T02:11:56;2.23;;;1.70;;
12120;SDS011;6124;59.460;17.908;2023-04-29T02:14:25;2.30;;;1.80;;
12120;SDS011;6124;59.460;17.908;2023-04-29T02:16:52;3.60;;;1.87;;
12120;SDS011;6124;59.460;17.908;2023-04-29T02:19:19;3.23;;;1.73;;
12120;SDS011;6124;59.460;17.908;2023-04-29T02:21:47;3.40;;;1.73;;
12120;SDS011;6124;59.460;17.908;2023-04-29T02:24:14;2.47;;;1.50;;
12120;SDS011;6124;59.460;17.908;2023-04-29T02:26:41;2.37;;;1.90;;
12120;SDS011;6124;59.460;17.908;2023-04-29T02:29:09;2.83;;;2.10;;
12120;SDS011;6124;59.460;17.908;2023-04-29T02:31:38;3.03;;;1.63;;
12120;SDS011;6124;59.460;17.908;2023-04-29T02:34:05;2.60;;;1.70;;
12120;SDS011;6124;59.460;17.908;2023-04-29T02:36:32;2.70;;;1.57;;
12120;SDS011;6124;59.460;17.908;2023-04-29T02:38:59;1.70;;;1.53;;
12120;SDS011;6124;59.460;17.908;2023-04-29T02:41:27;2.27;;;1.93;;
12120;SDS011;6124;59.460;17.908;2023-04-29T02:43:54;2.90;;;1.90;;
12120;SDS011;6124;59.460;17.908;2023-04-29T02:46:22;3.83;;;2.00;;
12120;SDS011;6124;59.460;17.908;2023-04-29T02:48:50;2.37;;;1.70;;
12120;SDS011;6124;59.460;17.908;2023-04-29T02:51:18;2.30;;;1.70;;
12120;SDS011;6124;59.460;17.908;2023-04-29T02:53:45;2.80;;;1.80;;
12120;SDS011;6124;59.460;17.908;2023-04-29T02:56:12;1.80;;;1.57;;
12120;SDS011;6124;59.460;17.908;2023-04-29T02:58:40;2.10;;;1.77;;
12120;SDS011;6124;59.460;17.908;2023-04-29T03:01:07;2.37;;;1.70;;
12120;SDS011;6124;59.460;17.908;2023-04-29T03:03:35;3.13;;;1.80;;
12120;SDS011;6124;59.460;17.908;2023-04-29T03:06:04;1.87;;;1.57;;
12120;SDS011;6124;59.460;17.908;2023-04-29T03:08:31;3.93;;;1.60;;
12120;SDS011;6124;59.460;17.908;2023-04-29T03:11:00;2.40;;;1.63;;
12120;SDS011;6124;59.460;17.908;2023-04-29T03:13:28;2.83;;;1.77;;
12120;SDS011;6124;59.460;17.908;2023-04-29T03:15:55;2.77;;;1.57;;
12120;SDS011;6124;59.460;17.908;2023-04-29T03:18:24;3.30;;;2.03;;
12120;SDS011;6124;59.460;17.908;2023-04-29T03:20:52;2.23;;;1.73;;
12120;SDS011;6124;59.460;17.908;2023-04-29T03:23:21;2.40;;;1.80;;
12120;SDS011;6124;59.460;17.908;2023-04-29T03:25:48;4.37;;;2.07;;
12120;SDS011;6124;59.460;17.908;2023-04-29T03:28:17;2.67;;;1.70;;
12120;SDS011;6124;59.460;17.908;2023-04-29T03:30:44;2.00;;;1.80;;
12120;SDS011;6124;59.460;17.908;2023-04-29T03:33:11;3.73;;;1.90;;
12120;SDS011;6124;59.460;17.908;2023-04-29T03:35:39;3.63;;;2.67;;
12120;SDS011;6124;59.460;17.908;2023-04-29T03:38:06;4.30;;;2.00;;
12120;SDS011;6124;59.460;17.908;2023-04-29T03:40:35;2.77;;;1.87;;
12120;SDS011;6124;59.460;17.908;2023-04-29T03:43:02;3.33;;;1.93;;
12120;SDS011;6124;59.460;17.908;2023-04-29T03:45:29;2.70;;;2.00;;
12120;SDS011;6124;59.460;17.908;2023-04-29T03:47:57;2.60;;;1.70;;
12120;SDS011;6124;59.460;17.908;2023-04-29T03:50:24;2.87;;;1.80;;
12120;SDS011;6124;59.460;17.908;2023-04-29T03:52:51;5.10;;;2.20;;
12120;SDS011;6124;59.460;17.908;2023-04-29T03:55:19;2.90;;;1.90;;
12120;SDS011;6124;59.460;17.908;2023-04-29T03:57:47;2.73;;;1.83;;
12120;SDS011;6124;59.460;17.908;2023-04-29T04:00:15;3.70;;;2.07;;
12120;SDS011;6124;59.460;17.908;2023-04-29T04:02:42;2.70;;;1.90;;
12120;SDS011;6124;59.460;17.908;2023-04-29T04:05:10;2.33;;;1.80;;
12120;SDS011;6124;59.460;17.908;2023-04-29T04:07:38;2.37;;;1.97;;
12120;SDS011;6124;59.460;17.908;2023-04-29T04:10:05;3.37;;;1.87;;
12120;SDS011;6124;59.460;17.908;2023-04-29T04:12:33;2.63;;;2.13;;
12120;SDS011;6124;59.460;17.908;2023-04-29T04:15:01;3.60;;;2.00;;
12120;SDS011;6124;59.460;17.908;2023-04-29T04:17:29;3.00;;;2.10;;
12120;SDS011;6124;59.460;17.908;2023-04-29T04:19:56;3.63;;;2.13;;
12120;SDS011;6124;59.460;17.908;2023-04-29T04:22:23;4.13;;;2.17;;
12120;SDS011;6124;59.460;17.908;2023-04-29T04:24:51;4.80;;;2.03;;
12120;SDS011;6124;59.460;17.908;2023-04-29T04:27:20;3.40;;;2.27;;
12120;SDS011;6124;59.460;17.908;2023-04-29T04:29:51;3.17;;;2.27;;
12120;SDS011;6124;59.460;17.908;2023-04-29T04:32:20;3.13;;;2.20;;
12120;SDS011;6124;59.460;17.908;2023-04-29T04:34:47;2.47;;;2.20;;
12120;SDS011;6124;59.460;17.908;2023-04-29T04:37:15;2.97;;;2.13;;
12120;SDS011;6124;59.460;17.908;2023-04-29T04:39:42;3.70;;;2.20;;
12120;SDS011;6124;59.460;17.908;2023-04-29T04:42:10;3.40;;;1.83;;
12120;SDS011;6124;59.460;17.908;2023-04-29T04:44:37;3.87;;;2.17;;
12120;SDS011;6124;59.460;17.908;2023-04-29T04:47:04;2.70;;;2.10;;
12120;SDS011;6124;59.460;17.908;2023-04-29T04:49:33;2.27;;;1.90;;
12120;SDS011;6124;59.460;17.908;2023-04-29T04:52:00;3.00;;;1.90;;
12120;SDS011;6124;59.460;17.908;2023-04-29T04:54:28;5.90;;;2.60;;
12120;SDS011;6124;59.460;17.908;2023-04-29T04:56:55;3.00;;;1.70;;
12120;SDS011;6124;59.460;17.908;2023-04-29T04:59:23;3.60;;;2.00;;
12120;SDS011;6124;59.460;17.908;2023-04-29T05:01:50;3.53;;;2.30;;
12120;SDS011;6124;59.460;17.908;2023-04-29T05:04:17;2.83;;;2.37;;
12120;SDS011;6124;59.460;17.908;2023-04-29T05:06:46;7.20;;;2.60;;
12120;SDS011;6124;59.460;17.908;2023-04-29T05:09:13;4.37;;;1.90;;
12120;SDS011;6124;59.460;17.908;2023-04-29T05:11:41;3.30;;;1.53;;
12120;SDS011;6124;59.460;17.908;2023-04-29T05:14:08;4.63;;;1.97;;
12120;SDS011;6124;59.460;17.908;2023-04-29T05:16:35;5.37;;;1.73;;
12120;SDS011;6124;59.460;17.908;2023-04-29T05:19:03;4.97;;;1.50;;
12120;SDS011;6124;59.460;17.908;2023-04-29T05:21:30;2.17;;;1.63;;
12120;SDS011;6124;59.460;17.908;2023-04-29T05:23:59;4.07;;;1.70;;
12120;SDS011;6124;59.460;17.908;2023-04-29T05:26:26;2.40;;;1.50;;
12120;SDS011;6124;59.460;17.908;2023-04-29T05:28:54;2.83;;;1.67;;
12120;SDS011;6124;59.460;17.908;2023-04-29T05:31:21;2.60;;;1.87;;
12120;SDS011;6124;59.460;17.908;2023-04-29T05:33:48;3.33;;;1.90;;
12120;SDS011;6124;59.460;17.908;2023-04-29T05:36:15;3.77;;;2.17;;
12120;SDS011;6124;59.460;17.908;2023-04-29T05:38:43;4.67;;;2.00;;
12120;SDS011;6124;59.460;17.908;2023-04-29T05:41:11;2.93;;;1.83;;
12120;SDS011;6124;59.460;17.908;2023-04-29T05:43:39;2.90;;;2.10;;
12120;SDS011;6124;59.460;17.908;2023-04-29T05:46:06;4.77;;;1.90;;
12120;SDS011;6124;59.460;17.908;2023-04-29T05:48:33;2.63;;;1.67;;
12120;SDS011;6124;59.460;17.908;2023-04-29T05:51:01;4.50;;;1.87;;
12120;SDS011;6124;59.460;17.908;2023-04-29T05:53:28;4.27;;;1.87;;
12120;SDS011;6124;59.460;17.908;2023-04-29T05:55:57;3.83;;;1.60;;
12120;SDS011;6124;59.460;17.908;2023-04-29T05:58:26;4.23;;;1.90;;
12120;SDS011;6124;59.460;17.908;2023-04-29T06:00:53;6.60;;;1.80;;
12120;SDS011;6124;59.460;17.908;2023-04-29T06:03:20;5.90;;;1.97;;
12120;SDS011;6124;59.460;17.908;2023-04-29T06:05:48;3.30;;;1.97;;
12120;SDS011;6124;59.460;17.908;2023-04-29T06:08:15;4.53;;;2.17;;
12120;SDS011;6124;59.460;17.908;2023-04-29T06:10:43;3.43;;;2.10;;
12120;SDS011;6124;59.460;17.908;2023-04-29T06:13:11;3.83;;;1.67;;
12120;SDS011;6124;59.460;17.908;2023-04-29T06:15:40;4.93;;;2.07;;
12120;SDS011;6124;59.460;17.908;2023-04-29T06:18:07;5.17;;;2.17;;
12120;SDS011;6124;59.460;17.908;2023-04-29T06:20:34;3.60;;;2.03;;
12120;SDS011;6124;59.460;17.908;2023-04-29T06:23:02;5.80;;;2.30;;
12120;SDS011;6124;59.460;17.908;2023-04-29T06:25:29;5.60;;;2.40;;
12120;SDS011;6124;59.460;17.908;2023-04-29T06:27:57;3.60;;;1.80;;
12120;SDS011;6124;59.460;17.908;2023-04-29T06:30:25;2.60;;;1.97;;
12120;SDS011;6124;59.460;17.908;2023-04-29T06:32:53;6.93;;;2.20;;
12120;SDS011;6124;59.460;17.908;2023-04-29T06:35:21;2.30;;;1.57;;
12120;SDS011;6124;59.460;17.908;2023-04-29T06:37:48;2.53;;;1.50;;
12120;SDS011;6124;59.460;17.908;2023-04-29T06:40:16;2.83;;;1.60;;
12120;SDS011;6124;59.460;17.908;2023-04-29T06:42:44;3.73;;;1.60;;
12120;SDS011;6124;59.460;17.908;2023-04-29T06:45:11;4.17;;;1.77;;
12120;SDS011;6124;59.460;17.908;2023-04-29T06:47:39;2.90;;;1.50;;
12120;SDS011;6124;59.460;17.908;2023-04-29T06:50:08;3.83;;;1.70;;
12120;SDS011;6124;59.460;17.908;2023-04-29T06:52:35;1.63;;;1.40;;
12120;SDS011;6124;59.460;17.908;2023-04-29T06:55:03;3.47;;;1.67;;
12120;SDS011;6124;59.460;17.908;2023-04-29T06:57:31;2.87;;;1.70;;
12120;SDS011;6124;59.460;17.908;2023-04-29T06:59:58;3.83;;;1.50;;
12120;SDS011;6124;59.460;17.908;2023-04-29T07:02:25;5.07;;;1.40;;
12120;SDS011;6124;59.460;17.908;2023-04-29T07:04:53;4.20;;;1.57;;
12120;SDS011;6124;59.460;17.908;2023-04-29T07:07:21;3.67;;;1.57;;
12120;SDS011;6124;59.460;17.908;2023-04-29T07:09:49;3.73;;;1.20;;
12120;SDS011;6124;59.460;17.908;2023-04-29T07:12:17;1.80;;;1.13;;
12120;SDS011;6124;59.460;17.908;2023-04-29T07:14:44;1.87;;;1.40;;
12120;SDS011;6124;59.460;17.908;2023-04-29T07:17:12;3.90;;;1.30;;
12120;SDS011;6124;59.460;17.908;2023-04-29T07:19:39;2.30;;;1.33;;
12120;SDS011;6124;59.460;17.908;2023-04-29T07:22:07;2.23;;;1.10;;
12120;SDS011;6124;59.460;17.908;2023-04-29T07:24:35;2.63;;;1.20;;
12120;SDS011;6124;59.460;17.908;2023-04-29T07:27:03;3.77;;;1.30;;
12120;SDS011;6124;59.460;17.908;2023-04-29T07:29:30;1.40;;;1.30;;
12120;SDS011;6124;59.460;17.908;2023-04-29T07:31:59;1.40;;;0.93;;
12120;SDS011;6124;59.460;17.908;2023-04-29T07:34:26;2.63;;;1.43;;
12120;SDS011;6124;59.460;17.908;2023-04-29T07:36:54;2.40;;;1.20;;
12120;SDS011;6124;59.460;17.908;2023-04-29T07:39:21;2.90;;;1.30;;
12120;SDS011;6124;59.460;17.908;2023-04-29T07:41:50;1.40;;;1.10;;
12120;SDS011;6124;59.460;17.908;2023-04-29T07:44:17;1.17;;;1.07;;
12120;SDS011;6124;59.460;17.908;2023-04-29T07:46:44;2.37;;;1.00;;
12120;SDS011;6124;59.460;17.908;2023-04-29T07:49:12;1.53;;;1.10;;
12120;SDS011;6124;59.460;17.908;2023-04-29T07:51:40;1.87;;;0.77;;
12120;SDS011;6124;59.460;17.908;2023-04-29T07:54:08;2.70;;;1.10;;
12120;SDS011;6124;59.460;17.908;2023-04-29T07:56:35;1.80;;;1.03;;
12120;SDS011;6124;59.460;17.908;2023-04-29T07:59:04;3.30;;;1.10;;
12120;SDS011;6124;59.460;17.908;2023-04-29T08:01:31;2.20;;;1.10;;
12120;SDS011;6124;59.460;17.908;2023-04-29T08:03:58;1.93;;;0.90;;
12120;SDS011;6124;59.460;17.908;2023-04-29T08:06:26;2.30;;;1.20;;
12120;SDS011;6124;59.460;17.908;2023-04-29T08:08:53;6.30;;;1.60;;
12120;SDS011;6124;59.460;17.908;2023-04-29T08:11:21;2.97;;;0.97;;
12120;SDS011;6124;59.460;17.908;2023-04-29T08:13:49;3.50;;;1.50;;
12120;SDS011;6124;59.460;17.908;2023-04-29T08:16:18;2.90;;;1.43;;
12120;SDS011;6124;59.460;17.908;2023-04-29T08:18:45;4.73;;;1.50;;
12120;SDS011;6124;59.460;17.908;2023-04-29T08:21:13;2.03;;;1.10;;
12120;SDS011;6124;59.460;17.908;2023-04-29T08:23:40;2.93;;;1.27;;
12120;SDS011;6124;59.460;17.908;2023-04-29T08:26:08;2.20;;;1.10;;
12120;SDS011;6124;59.460;17.908;2023-04-29T08:28:36;3.93;;;1.73;;
12120;SDS011;6124;59.460;17.908;2023-04-29T08:31:04;1.57;;;1.30;;
12120;SDS011;6124;59.460;17.908;2023-04-29T08:33:33;2.03;;;1.13;;
12120;SDS011;6124;59.460;17.908;2023-04-29T08:36:00;1.23;;;1.10;;
12120;SDS011;6124;59.460;17.908;2023-04-29T08:38:28;1.87;;;1.20;;
12120;SDS011;6124;59.460;17.908;2023-04-29T08:40:56;2.70;;;1.17;;
12120;SDS011;6124;59.460;17.908;2023-04-29T08:43:23;3.03;;;1.00;;
12120;SDS011;6124;59.460;17.908;2023-04-29T08:45:51;3.40;;;1.53;;
12120;SDS011;6124;59.460;17.908;2023-04-29T08:48:19;3.13;;;1.60;;
12120;SDS011;6124;59.460;17.908;2023-04-29T08:50:47;3.70;;;1.43;;
12120;SDS011;6124;59.460;17.908;2023-04-29T08:53:15;2.73;;;1.20;;
12120;SDS011;6124;59.460;17.908;2023-04-29T08:55:43;2.47;;;1.20;;
12120;SDS011;6124;59.460;17.908;2023-04-29T08:58:11;2.73;;;1.10;;
12120;SDS011;6124;59.460;17.908;2023-04-29T09:00:39;2.57;;;1.40;;
12120;SDS011;6124;59.460;17.908;2023-04-29T09:03:10;2.30;;;1.43;;
12120;SDS011;6124;59.460;17.908;2023-04-29T09:05:38;4.17;;;1.10;;
12120;SDS011;6124;59.460;17.908;2023-04-29T09:08:08;3.23;;;1.63;;
12120;SDS011;6124;59.460;17.908;2023-04-29T09:10:36;3.17;;;1.40;;
12120;SDS011;6124;59.460;17.908;2023-04-29T09:13:04;2.47;;;1.37;;
12120;SDS011;6124;59.460;17.908;2023-04-29T09:15:34;5.07;;;1.37;;
12120;SDS011;6124;59.460;17.908;2023-04-29T09:18:02;3.13;;;1.30;;
12120;SDS011;6124;59.460;17.908;2023-04-29T09:20:30;5.33;;;1.60;;
12120;SDS011;6124;59.460;17.908;2023-04-29T09:22:58;4.07;;;1.23;;
12120;SDS011;6124;59.460;17.908;2023-04-29T09:25:28;6.10;;;1.50;;
12120;SDS011;6124;59.460;17.908;2023-04-29T09:27:56;5.07;;;1.20;;
12120;SDS011;6124;59.460;17.908;2023-04-29T09:30:23;2.83;;;1.63;;
12120;SDS011;6124;59.460;17.908;2023-04-29T09:35:40;5.90;;;1.53;;
12120;SDS011;6124;59.460;17.908;2023-04-29T09:38:09;3.13;;;1.40;;
12120;SDS011;6124;59.460;17.908;2023-04-29T09:40:38;2.60;;;1.43;;
12120;SDS011;6124;59.460;17.908;2023-04-29T09:43:10;1.73;;;1.10;;
12120;SDS011;6124;59.460;17.908;2023-04-29T09:45:39;3.73;;;1.40;;
12120;SDS011;6124;59.460;17.908;2023-04-29T09:48:07;3.83;;;1.47;;
12120;SDS011;6124;59.460;17.908;2023-04-29T09:50:35;2.47;;;1.40;;
12120;SDS011;6124;59.460;17.908;2023-04-29T09:53:02;4.03;;;1.60;;
12120;SDS011;6124;59.460;17.908;2023-04-29T09:55:30;2.20;;;1.50;;
12120;SDS011;6124;59.460;17.908;2023-04-29T09:57:59;2.73;;;1.30;;
12120;SDS011;6124;59.460;17.908;2023-04-29T10:00:27;3.50;;;1.50;;
12120;SDS011;6124;59.460;17.908;2023-04-29T10:02:57;2.83;;;1.50;;
12120;SDS011;6124;59.460;17.908;2023-04-29T10:05:26;3.00;;;1.30;;
12120;SDS011;6124;59.460;17.908;2023-04-29T10:07:55;4.03;;;1.50;;
12120;SDS011;6124;59.460;17.908;2023-04-29T10:10:24;4.17;;;1.53;;
12120;SDS011;6124;59.460;17.908;2023-04-29T10:12:52;3.67;;;1.40;;
12120;SDS011;6124;59.460;17.908;2023-04-29T10:15:22;6.53;;;1.83;;
12120;SDS011;6124;59.460;17.908;2023-04-29T10:17:53;3.60;;;1.53;;
12120;SDS011;6124;59.460;17.908;2023-04-29T10:20:21;3.63;;;1.63;;
12120;SDS011;6124;59.460;17.908;2023-04-29T10:22:49;3.50;;;1.73;;
12120;SDS011;6124;59.460;17.908;2023-04-29T10:25:19;4.30;;;1.70;;
12120;SDS011;6124;59.460;17.908;2023-04-29T10:27:47;4.83;;;1.47;;
12120;SDS011;6124;59.460;17.908;2023-04-29T10:30:17;2.83;;;1.40;;
12120;SDS011;6124;59.460;17.908;2023-04-29T10:32:46;4.73;;;1.87;;
12120;SDS011;6124;59.460;17.908;2023-04-29T10:35:14;5.50;;;1.53;;
12120;SDS011;6124;59.460;17.908;2023-04-29T10:37:44;5.07;;;1.77;;
12120;SDS011;6124;59.460;17.908;2023-04-29T10:40:12;5.40;;;1.43;;
12120;SDS011;6124;59.460;17.908;2023-04-29T10:42:42;1.67;;;1.33;;
12120;SDS011;6124;59.460;17.908;2023-04-29T10:45:23;7.07;;;1.87;;
12120;SDS011;6124;59.460;17.908;2023-04-29T10:48:10;4.70;;;1.50;;
12120;SDS011;6124;59.460;17.908;2023-04-29T10:53:23;5.10;;;1.57;;
12120;SDS011;6124;59.460;17.908;2023-04-29T10:55:52;5.10;;;1.50;;
12120;SDS011;6124;59.460;17.908;2023-04-29T10:58:36;4.27;;;1.50;;
12120;SDS011;6124;59.460;17.908;2023-04-29T11:01:03;4.23;;;1.53;;
12120;SDS011;6124;59.460;17.908;2023-04-29T11:03:46;4.83;;;1.60;;
12120;SDS011;6124;59.460;17.908;2023-04-29T11:06:15;4.53;;;1.43;;
12120;SDS011;6124;59.460;17.908;2023-04-29T11:08:42;4.10;;;1.40;;
12120;SDS011;6124;59.460;17.908;2023-04-29T11:11:09;3.23;;;1.40;;
12120;SDS011;6124;59.460;17.908;2023-04-29T11:13:39;3.10;;;1.20;;
12120;SDS011;6124;59.460;17.908;2023-04-29T11:16:07;2.17;;;1.33;;
12120;SDS011;6124;59.460;17.908;2023-04-29T11:18:35;2.60;;;1.20;;
12120;SDS011;6124;59.460;17.908;2023-04-29T11:21:13;5.37;;;1.30;;
12120;SDS011;6124;59.460;17.908;2023-04-29T11:23:40;1.70;;;1.00;;
12120;SDS011;6124;59.460;17.908;2023-04-29T11:26:09;4.20;;;1.63;;
12120;SDS011;6124;59.460;17.908;2023-04-29T11:28:37;3.97;;;1.30;;
12120;SDS011;6124;59.460;17.908;2023-04-29T11:31:06;5.30;;;1.30;;
12120;SDS011;6124;59.460;17.908;2023-04-29T11:33:33;2.40;;;1.03;;
12120;SDS011;6124;59.460;17.908;2023-04-29T11:36:00;3.23;;;1.30;;
12120;SDS011;6124;59.460;17.908;2023-04-29T11:38:30;1.90;;;1.07;;
12120;SDS011;6124;59.460;17.908;2023-04-29T11:40:58;3.90;;;1.53;;
12120;SDS011;6124;59.460;17.908;2023-04-29T11:43:25;4.23;;;1.20;;
12120;SDS011;6124;59.460;17.908;2023-04-29T11:45:52;3.47;;;1.23;;
12120;SDS011;6124;59.460;17.908;2023-04-29T11:48:20;3.17;;;1.20;;
12120;SDS011;6124;59.460;17.908;2023-04-29T11:50:48;2.73;;;1.00;;
12120;SDS011;6124;59.460;17.908;2023-04-29T11:53:18;1.87;;;1.10;;
12120;SDS011;6124;59.460;17.908;2023-04-29T11:55:47;2.30;;;0.93;;
12120;SDS011;6124;59.460;17.908;2023-04-29T11:58:15;2.80;;;1.20;;
12120;SDS011;6124;59.460;17.908;2023-04-29T12:00:42;3.33;;;1.20;;
12120;SDS011;6124;59.460;17.908;2023-04-29T12:03:12;5.60;;;1.27;;
12120;SDS011;6124;59.460;17.908;2023-04-29T12:05:44;4.47;;;1.20;;
12120;SDS011;6124;59.460;17.908;2023-04-29T12:08:12;4.53;;;1.50;;
12120;SDS011;6124;59.460;17.908;2023-04-29T12:10:40;4.67;;;1.20;;
12120;SDS011;6124;59.460;17.908;2023-04-29T12:13:08;6.90;;;1.33;;
12120;SDS011;6124;59.460;17.908;2023-04-29T12:15:36;4.10;;;1.40;;
12120;SDS011;6124;59.460;17.908;2023-04-29T12:18:03;5.50;;;1.40;;
12120;SDS011;6124;59.460;17.908;2023-04-29T12:20:31;3.13;;;1.40;;
12120;SDS011;6124;59.460;17.908;2023-04-29T12:23:09;4.00;;;1.60;;
12120;SDS011;6124;59.460;17.908;2023-04-29T12:25:37;2.73;;;1.40;;
12120;SDS011;6124;59.460;17.908;2023-04-29T12:28:05;3.30;;;1.33;;
12120;SDS011;6124;59.460;17.908;2023-04-29T12:30:34;5.87;;;1.90;;
12120;SDS011;6124;59.460;17.908;2023-04-29T12:33:02;5.10;;;1.63;;
12120;SDS011;6124;59.460;17.908;2023-04-29T12:35:30;3.97;;;1.53;;
12120;SDS011;6124;59.460;17.908;2023-04-29T12:37:57;3.97;;;1.60;;
12120;SDS011;6124;59.460;17.908;2023-04-29T12:40:25;5.90;;;1.90;;
12120;SDS011;6124;59.460;17.908;2023-04-29T12:42:53;4.10;;;1.90;;
12120;SDS011;6124;59.460;17.908;2023-04-29T12:45:27;6.60;;;2.53;;
12120;SDS011;6124;59.460;17.908;2023-04-29T12:47:56;6.50;;;1.80;;
12120;SDS011;6124;59.460;17.908;2023-04-29T12:50:27;5.10;;;1.90;;
12120;SDS011;6124;59.460;17.908;2023-04-29T12:52:55;6.23;;;1.97;;
12120;SDS011;6124;59.460;17.908;2023-04-29T12:55:23;4.53;;;1.73;;
12120;SDS011;6124;59.460;17.908;2023-04-29T12:57:50;3.23;;;1.90;;
12120;SDS011;6124;59.460;17.908;2023-04-29T13:00:18;7.07;;;1.80;;
12120;SDS011;6124;59.460;17.908;2023-04-29T13:02:45;6.20;;;2.20;;
12120;SDS011;6124;59.460;17.908;2023-04-29T13:05:14;5.20;;;1.80;;
12120;SDS011;6124;59.460;17.908;2023-04-29T13:07:42;3.93;;;2.00;;
12120;SDS011;6124;59.460;17.908;2023-04-29T13:10:09;4.57;;;1.87;;
12120;SDS011;6124;59.460;17.908;2023-04-29T13:12:37;3.90;;;2.00;;
12120;SDS011;6124;59.460;17.908;2023-04-29T13:15:05;4.03;;;1.80;;
12120;SDS011;6124;59.460;17.908;2023-04-29T13:17:34;5.67;;;2.00;;
12120;SDS011;6124;59.460;17.908;2023-04-29T13:20:02;5.03;;;1.67;;
12120;SDS011;6124;59.460;17.908;2023-04-29T13:22:31;2.73;;;1.90;;
12120;SDS011;6124;59.460;17.908;2023-04-29T13:24:58;3.20;;;1.70;;
12120;SDS011;6124;59.460;17.908;2023-04-29T13:27:25;3.40;;;1.77;;
12120;SDS011;6124;59.460;17.908;2023-04-29T13:29:53;7.13;;;2.03;;
12120;SDS011;6124;59.460;17.908;2023-04-29T13:32:20;6.90;;;1.93;;
12120;SDS011;6124;59.460;17.908;2023-04-29T13:34:48;4.13;;;2.10;;
12120;SDS011;6124;59.460;17.908;2023-04-29T13:37:16;5.13;;;2.60;;
12120;SDS011;6124;59.460;17.908;2023-04-29T13:39:45;3.57;;;2.20;;
12120;SDS011;6124;59.460;17.908;2023-04-29T13:42:12;4.87;;;2.60;;
12120;SDS011;6124;59.460;17.908;2023-04-29T13:44:39;8.40;;;2.67;;
12120;SDS011;6124;59.460;17.908;2023-04-29T13:47:09;4.53;;;2.37;;
12120;SDS011;6124;59.460;17.908;2023-04-29T13:49:36;3.10;;;2.13;;
12120;SDS011;6124;59.460;17.908;2023-04-29T13:52:04;3.83;;;2.10;;
12120;SDS011;6124;59.460;17.908;2023-04-29T13:54:31;5.60;;;2.20;;
12120;SDS011;6124;59.460;17.908;2023-04-29T13:57:00;3.37;;;1.80;;
12120;SDS011;6124;59.460;17.908;2023-04-29T13:59:29;5.00;;;2.40;;
12120;SDS011;6124;59.460;17.908;2023-04-29T14:01:57;4.20;;;2.30;;
12120;SDS011;6124;59.460;17.908;2023-04-29T14:04:25;5.37;;;2.53;;
12120;SDS011;6124;59.460;17.908;2023-04-29T14:06:52;6.40;;;2.47;;
12120;SDS011;6124;59.460;17.908;2023-04-29T14:09:20;5.67;;;2.17;;
12120;SDS011;6124;59.460;17.908;2023-04-29T14:11:48;3.70;;;2.13;;
12120;SDS011;6124;59.460;17.908;2023-04-29T14:14:17;5.80;;;2.70;;
12120;SDS011;6124;59.460;17.908;2023-04-29T14:16:44;6.00;;;2.43;;
12120;SDS011;6124;59.460;17.908;2023-04-29T14:19:11;3.53;;;2.40;;
12120;SDS011;6124;59.460;17.908;2023-04-29T14:21:39;3.53;;;2.30;;
12120;SDS011;6124;59.460;17.908;2023-04-29T14:24:06;4.77;;;2.43;;
12120;SDS011;6124;59.460;17.908;2023-04-29T14:26:33;5.80;;;3.00;;
12120;SDS011;6124;59.460;17.908;2023-04-29T14:29:01;6.17;;;2.80;;
12120;SDS011;6124;59.460;17.908;2023-04-29T14:31:32;4.53;;;2.60;;
12120;SDS011;6124;59.460;17.908;2023-04-29T14:34:00;6.07;;;2.77;;
12120;SDS011;6124;59.460;17.908;2023-04-29T14:36:27;3.87;;;2.73;;
12120;SDS011;6124;59.460;17.908;2023-04-29T14:38:56;5.60;;;2.90;;
12120;SDS011;6124;59.460;17.908;2023-04-29T14:41:24;6.33;;;2.70;;
12120;SDS011;6124;59.460;17.908;2023-04-29T14:43:51;6.50;;;2.70;;
12120;SDS011;6124;59.460;17.908;2023-04-29T14:46:19;5.13;;;2.67;;
12120;SDS011;6124;59.460;17.908;2023-04-29T14:48:48;6.20;;;2.80;;
12120;SDS011;6124;59.460;17.908;2023-04-29T14:51:16;5.53;;;2.70;;
12120;SDS011;6124;59.460;17.908;2023-04-29T14:53:43;5.73;;;3.00;;
12120;SDS011;6124;59.460;17.908;2023-04-29T14:56:10;6.47;;;3.00;;
12120;SDS011;6124;59.460;17.908;2023-04-29T14:58:38;4.40;;;2.67;;